Latest Weather Observations for The Monument

IDQ60801

Issued at 3:52 pm EST Sunday 15 September 2019 (issued every 10 minutes, with the page automatically refreshed every 10 minutes)

About weather observations | Map of weather stations | Latest weather observations for QLD | Other Formats
Station Details ID: 037034 Name: THE MONUMENT AIRPORT Lat: -21.81 Lon: 139.93 Height: 288.4 m
Data from the previous 72 hours. | See also: Recent months at The Monument
Date/Time
EST
Temp
°C
App
Temp
°C
Dew
Point
°C
Rel
Hum
%
Delta-T
°C
Wind Press
QNH
hPa
Press
MSL
hPa
Rain since
9am
mm
Dir  Spd
km/h
Gust
km/h
Spd
kts
Gust
kts
15/03:30pm 31.7 27.2 -3.6 10 16.3 NNE 11 20 6 11 1017.7 1016.4 0.0
15/03:00pm 31.3 27.1 -3.9 10 16.1 W 9 19 5 10 1017.8 1016.6 0.0
15/02:30pm 32.1 26.5 -3.3 10 16.4 NE 17 26 9 14 1018.1 1016.9 0.0
15/02:00pm 32.5 27.6 -3.0 10 16.6 N 13 26 7 14 1018.5 1017.3 0.0
15/01:30pm 31.4 25.3 -3.8 10 16.1 ENE 19 24 10 13 1019.1 1017.9 0.0
15/01:00pm 31.3 25.6 -3.9 10 16.0 NNE 17 35 9 19 1019.6 1018.4 0.0
15/12:30pm 30.8 24.8 -3.0 11 15.6 NNE 19 30 10 16 1020.2 1019.0 0.0
15/12:00pm 31.1 25.7 -1.6 12 15.5 N 17 30 9 16 1020.8 1019.5 0.0
15/11:30am 30.2 24.2 -1.2 13 14.9 N 20 30 11 16 1021.2 1020.0 0.0
15/11:00am 29.4 23.1 -0.9 14 14.3 NNE 22 33 12 18 1021.3 1020.1 0.0
15/10:30am 28.0 21.9 -2.0 14 13.8 NNE 20 30 11 16 1021.7 1020.5 0.0
15/10:00am 26.7 20.5 -3.0 14 13.2 N 20 28 11 15 1021.9 1020.7 0.0
15/09:30am 25.1 18.9 -5.2 13 12.8 NNE 19 30 10 16 1022.1 1020.9 0.0
15/09:00am 23.7 18.4 -7.4 12 12.4 NE 13 19 7 10 1022.3 1021.1 0.0
15/08:30am 21.0 16.6 -5.7 16 10.8 NE 9 15 5 8 1022.1 1020.9 0.0
15/08:00am 16.7 14.0 -5.7 21 8.6 CALM 0 0 0 0 1021.6 1020.4 0.0
15/07:30am 12.8 9.0 -5.2 28 6.7 N 6 7 3 4 1021.3 1020.1 0.0
15/07:00am 9.7 5.9 -5.8 33 5.5 N 6 7 3 4 1020.9 1019.7 0.0
15/06:30am 7.5 4.6 -7.7 33 5.0 CALM 0 0 0 0 1020.4 1019.1 0.0
15/06:00am 8.3 5.0 -8.2 30 5.4 NW 2 6 1 3 1020.0 1018.8 0.0
15/05:30am 10.0 5.3 -8.6 26 6.2 WNW 9 11 5 6 1019.9 1018.7 0.0
15/05:00am 11.1 7.9 -7.7 26 6.5 NNW 2 7 1 4 1019.6 1018.4 0.0
15/04:30am 11.0 8.1 -7.7 26 6.5 CALM 0 0 0 0 1019.3 1018.1 0.0
15/04:00am 9.3 6.4 -8.2 28 5.8 CALM 0 6 0 3 1019.3 1018.1 0.0
15/03:30am 11.2 6.9 -9.1 23 6.8 WSW 7 9 4 5 1019.4 1018.2 0.0
15/03:00am 12.1 9.1 -8.9 22 7.1 CALM 0 0 0 0 1019.6 1018.4 0.0
15/02:30am 11.8 7.7 -9.2 22 7.1 WNW 6 7 3 4 1019.7 1018.5 0.0
15/02:00am 12.4 9.0 -9.3 21 7.3 WSW 2 6 1 3 1019.8 1018.6 0.0
15/01:30am 12.4 9.4 -9.3 21 7.4 CALM 0 0 0 0 1019.9 1018.7 0.0
15/01:00am 12.1 9.2 -8.4 23 7.0 CALM 0 0 0 0 1020.0 1018.8 0.0
15/12:30am 12.9 9.9 -8.9 21 7.5 CALM 0 0 0 0 1020.2 1019.0 0.0
15/12:00am 12.7 9.8 -7.9 23 7.2 CALM 0 0 0 0 1020.1 1018.9 0.0
 
Date/Time
EST
Temp
°C
App
Temp
°C
Dew
Point
°C
Rel
Hum
%
Delta-T
°C
Wind Press
QNH
hPa
Press
MSL
hPa
Rain since
9am
mm
Dir  Spd
km/h
Gust
km/h
Spd
kts
Gust
kts
14/11:30pm 13.7 9.6 -8.8 20 7.8 SSW 6 7 3 4 1020.4 1019.1 0.0
14/11:00pm 14.7 10.6 -8.7 19 8.3 WSW 6 11 3 6 1020.6 1019.3 0.0
14/10:30pm 14.5 10.3 -9.5 18 8.3 WSW 6 7 3 4 1020.6 1019.3 0.0
14/10:00pm 16.4 13.4 -8.7 17 9.0 CALM 0 0 0 0 1020.6 1019.3 0.0
14/09:30pm 16.6 13.6 -9.3 16 9.3 CALM 0 0 0 0 1020.6 1019.3 0.0
14/09:00pm 17.4 14.4 -9.5 15 9.6 CALM 0 0 0 0 1020.7 1019.4 0.0
14/08:30pm 19.6 16.6 -9.5 13 10.7 CALM 0 0 0 0 1020.4 1019.1 0.0
14/08:00pm 20.7 16.9 -9.7 12 11.3 E 4 7 2 4 1020.2 1019.0 0.0
14/07:30pm 22.0 17.6 -9.8 11 12.0 ESE 7 9 4 5 1020.0 1018.8 0.0
14/07:00pm 23.7 19.0 -9.7 10 12.8 SE 9 11 5 6 1019.8 1018.6 0.0
14/06:30pm 26.4 21.0 -9.0 9 14.2 SE 13 15 7 8 1019.7 1018.5 0.0
14/06:00pm 29.1 23.3 -8.5 8 15.5 SSE 15 20 8 11 1019.5 1018.3 0.0
14/05:30pm 30.2 23.6 -9.4 7 16.3 ESE 19 24 10 13 1019.3 1018.1 0.0
14/05:00pm 30.7 24.1 -9.0 7 16.5 SE 19 28 10 15 1019.3 1018.1 0.0
14/04:30pm 30.9 25.1 -8.9 7 16.6 ESE 15 22 8 12 1019.3 1018.1 0.0
14/04:00pm 31.4 25.6 -8.5 7 16.8 SSE 15 26 8 14 1019.1 1017.9 0.0
14/03:30pm 31.2 25.4 -8.6 7 16.8 SE 15 26 8 14 1019.5 1018.3 0.0
14/03:00pm 31.2 24.6 -8.6 7 16.7 ESE 19 26 10 14 1019.7 1018.5 0.0
14/02:30pm 31.3 25.7 -6.8 8 16.6 SE 15 32 8 17 1020.1 1018.9 0.0
14/02:00pm 31.4 25.8 -6.8 8 16.6 SE 15 30 8 16 1020.7 1019.4 0.0
14/01:30pm 30.7 24.3 -7.3 8 16.3 SE 19 26 10 14 1021.3 1020.1 0.0
14/01:00pm 31.0 25.1 -5.5 9 16.1 E 17 26 9 14 1021.8 1020.6 0.0
14/12:30pm 29.3 22.7 -6.8 9 15.4 SSE 20 32 11 17 1022.3 1021.1 0.0
14/12:00pm 30.1 23.8 -6.2 9 15.7 ESE 19 30 10 16 1022.8 1021.6 0.0
14/11:30am 29.1 22.1 -7.0 9 15.4 SE 22 32 12 17 1023.3 1022.1 0.0
14/11:00am 29.1 22.5 -7.0 9 15.3 ESE 20 32 11 17 1024.0 1022.8 0.0
14/10:30am 27.7 20.8 -6.6 10 14.5 E 22 32 12 17 1024.3 1023.1 0.0
14/10:00am 26.8 20.2 -7.3 10 14.1 ESE 20 30 11 16 1024.3 1023.1 0.0
14/09:30am 25.2 19.1 -7.3 11 13.3 ESE 17 26 9 14 1024.6 1023.4 0.0
14/09:00am 23.4 18.1 -7.6 12 12.3 ESE 13 19 7 10 1024.5 1023.3 0.0
14/08:30am 20.4 16.5 -6.2 16 10.6 ESE 6 13 3 7 1024.3 1023.1 0.0
14/08:00am 15.7 13.0 -5.9 22 8.2 CALM 0 0 0 0 1024.1 1022.9 0.0
14/07:30am 11.7 9.0 -5.7 29 6.4 CALM 0 0 0 0 1023.6 1022.4 0.0
14/07:00am 9.1 5.2 -6.3 33 5.3 NNW 6 7 3 4 1023.1 1021.9 0.0
14/06:30am 8.4 5.2 -6.9 33 5.2 W 2 7 1 4 1022.7 1021.5 0.0
14/06:00am 9.3 4.4 -6.9 31 5.6 SW 11 20 6 11 1022.5 1021.3 0.0
14/05:30am 8.8 6.0 -6.6 33 5.3 CALM 0 0 0 0 1022.0 1020.8 0.0
14/05:00am 10.9 8.2 -6.4 29 6.1 CALM 0 0 0 0 1021.7 1020.5 0.0
14/04:30am 10.2 7.5 -6.1 31 5.8 CALM 0 0 0 0 1021.5 1020.3 0.0
14/04:00am 10.2 7.4 -6.6 30 5.9 CALM 0 0 0 0 1021.4 1020.2 0.0
14/03:30am 11.0 7.0 -5.9 30 6.1 SE 7 7 4 4 1021.5 1020.3 0.0
14/03:00am 13.3 8.5 -5.8 26 7.1 SE 11 13 6 7 1021.7 1020.5 0.0
14/02:30am 12.2 8.2 -5.7 28 6.6 SE 7 9 4 5 1021.9 1020.7 0.0
14/02:00am 11.5 8.9 -5.4 30 6.2 CALM 0 0 0 0 1022.0 1020.8 0.0
14/01:30am 12.2 9.1 -5.7 28 6.6 WSW 2 6 1 3 1022.1 1020.9 0.0
14/01:00am 12.7 10.1 -5.3 28 6.7 CALM 0 0 0 0 1022.2 1021.0 0.0
14/12:30am 14.1 11.5 -5.1 26 7.3 CALM 0 0 0 0 1022.3 1021.1 0.0
14/12:00am 13.6 11.0 -5.0 27 7.0 CALM 0 0 0 0 1022.4 1021.2 0.0
 
Date/Time
EST
Temp
°C
App
Temp
°C
Dew
Point
°C
Rel
Hum
%
Delta-T
°C
Wind Press
QNH
hPa
Press
MSL
hPa
Rain since
9am
mm
Dir  Spd
km/h
Gust
km/h
Spd
kts
Gust
kts
13/11:30pm 14.1 10.8 -4.6 27 7.2 SSE 4 6 2 3 1022.4 1021.2 0.0
13/11:00pm 16.0 11.4 -4.5 24 8.0 SW 11 13 6 7 1022.6 1021.4 0.0
13/10:30pm 16.1 13.6 -4.4 24 8.1 CALM 0 0 0 0 1022.5 1021.3 0.0
13/10:00pm 15.9 13.4 -4.1 25 7.9 CALM 0 0 0 0 1022.5 1021.3 0.0
13/09:30pm 17.1 13.8 -4.2 23 8.5 ESE 4 6 2 3 1022.6 1021.4 0.0
13/09:00pm 17.6 14.3 -4.3 22 8.8 SSE 4 6 2 3 1022.5 1021.3 0.0
13/08:30pm 19.3 15.6 -4.9 19 9.8 SE 6 7 3 4 1022.4 1021.2 0.0
13/08:00pm 20.5 16.1 -5.4 17 10.4 ESE 9 11 5 6 1022.1 1020.9 0.0
13/07:30pm 22.3 18.4 -4.7 16 11.3 SE 7 9 4 5 1021.8 1020.6 0.0
13/07:00pm 23.7 19.4 -5.3 14 12.1 SE 9 11 5 6 1021.5 1020.3 0.0
13/06:30pm 26.2 21.2 -4.4 13 13.3 SE 13 17 7 9 1021.3 1020.1 0.0
13/06:00pm 28.5 22.2 -3.6 12 14.4 SE 20 30 11 16 1021.1 1019.9 0.0
13/05:30pm 29.4 23.1 -4.1 11 15.0 SE 20 30 11 16 1021.1 1019.9 0.0
13/05:00pm 29.7 23.4 -3.9 11 15.1 SE 20 30 11 16 1020.9 1019.7 0.0
13/04:30pm 29.9 23.6 -3.7 11 15.2 SE 20 30 11 16 1020.9 1019.7 0.0
13/04:00pm 30.5 24.9 -3.3 11 15.5 ESE 17 26 9 14 1020.9 1019.7 0.0
13/03:30pm 30.0 23.9 -3.6 11 15.3 SE 19 33 10 18 1021.1 1019.9 0.0
13/03:00pm 30.4 24.8 -3.3 11 15.4 ESE 17 28 9 15 1021.4 1020.2 0.0
13/02:30pm 29.4 23.2 -2.9 12 14.8 E 20 33 11 18 1021.6 1020.4 0.0
13/02:00pm 29.5 23.3 -2.9 12 14.8 SE 20 32 11 17 1022.0 1020.8 0.0
13/01:30pm 28.8 22.7 -2.3 13 14.3 ESE 20 32 11 17 1022.5 1021.3 0.0
13/01:00pm 28.7 22.8 -2.4 13 14.2 ESE 19 32 10 17 1023.1 1021.9 0.0
13/12:30pm 27.8 21.9 -2.1 14 13.7 E 19 32 10 17 1023.6 1022.4 0.0
13/12:00pm 27.6 21.4 -3.3 13 13.8 E 20 33 11 18 1024.3 1023.1 0.0
13/11:30am 27.5 21.4 -2.3 14 13.6 E 20 30 11 16 1024.9 1023.7 0.0
13/11:00am 26.6 21.1 -2.1 15 13.0 ESE 17 28 9 15 1025.2 1024.0 0.0
13/10:30am 25.7 20.2 -2.0 16 12.5 ENE 17 28 9 15 1025.6 1024.4 0.0
13/10:00am 24.7 20.4 -2.0 17 11.9 E 11 19 6 10 1025.8 1024.6 0.0
13/09:30am 22.1 17.9 -4.1 17 11.0 ESE 9 15 5 8 1025.7 1024.5 0.0
13/09:00am 20.5 15.7 -6.1 16 10.5 ESE 11 15 6 8 1025.7 1024.5 0.0
13/08:30am 18.4 13.9 -7.1 17 9.7 ESE 9 13 5 7 1025.4 1024.2 0.0
13/08:00am 14.6 11.6 -8.7 19 8.2 CALM 0 2 0 1 1025.0 1023.8 0.0
13/07:30am 11.4 8.5 -7.9 25 6.7 CALM 0 0 0 0 1024.5 1023.3 0.0
13/07:00am 9.0 6.1 -8.1 29 5.7 CALM 0 0 0 0 1023.8 1022.6 0.0
13/06:30am 8.3 5.4 -8.2 30 5.4 CALM 0 0 0 0 1023.3 1022.1 0.0
13/06:00am 9.3 6.3 -8.7 27 5.9 CALM 0 0 0 0 1023.0 1021.8 0.0
13/05:30am 9.5 6.2 -8.1 28 5.9 NW 2 7 1 4 1022.9 1021.7 0.0
13/05:00am 8.8 4.7 -8.2 29 5.6 SE 6 7 3 4 1022.6 1021.4 0.0
13/04:30am 8.5 3.9 -8.5 29 5.6 SSE 9 11 5 6 1022.4 1021.2 0.0
13/04:00am 9.7 6.8 -8.4 27 6.0 CALM 0 7 0 4 1022.2 1021.0 0.0
13/03:30am 8.5 4.5 -8.1 30 5.5 SE 6 7 3 4 1022.1 1020.9 0.0
13/03:00am 8.8 4.6 -8.2 29 5.6 SSW 7 7 4 4 1022.2 1021.0 0.0
13/02:30am 9.7 5.6 -9.3 25 6.2 SSW 6 7 3 4 1022.6 1021.4 0.0
13/02:00am 11.4 8.5 -8.4 24 6.7 CALM 0 0 0 0 1022.9 1021.7 0.0
13/01:30am 11.6 8.6 -8.8 23 6.9 CALM 0 0 0 0 1022.9 1021.7 0.0
13/01:00am 10.2 6.9 -8.9 25 6.3 S 2 7 1 4 1023.2 1022.0 0.0
13/12:30am 13.6 9.0 -7.7 22 7.6 SSE 9 11 5 6 1023.4 1022.2 0.0
13/12:00am 13.1 9.4 -8.1 22 7.4 SE 4 7 2 4 1023.5 1022.3 0.0
 
Date/Time
EST
Temp
°C
App
Temp
°C
Dew
Point
°C
Rel
Hum
%
Delta-T
°C
Wind Press
QNH
hPa
Press
MSL
hPa
Rain since
9am
mm
Dir  Spd
km/h
Gust
km/h
Spd
kts
Gust
kts
12/11:30pm 12.4 8.3 -8.7 22 7.3 SE 6 7 3 4 1023.5 1022.3 0.0
12/11:00pm 15.2 10.6 -8.2 19 8.4 SE 9 11 5 6 1023.5 1022.3 0.0
12/10:30pm 16.1 11.5 -7.5 19 8.7 SE 9 13 5 7 1023.5 1022.3 0.0
12/10:00pm 14.4 10.2 -7.6 21 7.9 ESE 7 9 4 5 1023.5 1022.3 0.0
12/09:30pm 15.3 12.4 -8.2 19 8.5 CALM 0 0 0 0 1023.4 1022.2 0.0
12/09:00pm 16.5 13.2 -7.9 18 8.9 SSE 2 7 1 4 1023.3 1022.1 0.0
12/08:30pm 17.7 13.4 -8.4 16 9.6 SE 7 9 4 5 1023.1 1021.9 0.0
12/08:00pm 18.8 13.7 -9.2 14 10.3 SE 11 13 6 7 1022.8 1021.6 0.0
12/07:30pm 20.0 14.9 -9.2 13 10.9 SE 11 11 6 6 1022.6 1021.4 0.0
12/07:00pm 21.6 16.5 -9.0 12 11.6 SE 11 13 6 7 1022.4 1021.2 0.0
12/06:30pm 24.5 19.0 -9.1 10 13.2 ESE 13 17 7 9 1022.1 1020.9 0.0
12/06:00pm 26.5 21.2 -7.6 10 14.0 ESE 13 20 7 11 1021.8 1020.6 0.0
12/05:30pm 27.5 21.7 -8.2 9 14.6 ESE 15 24 8 13 1021.6 1020.4 0.0
12/05:00pm 27.7 21.2 -8.0 9 14.7 ESE 19 28 10 15 1021.6 1020.4 0.0
12/04:30pm 28.6 22.7 -6.0 10 14.9 SE 17 22 9 12 1021.5 1020.3 0.0
12/04:00pm 28.2 22.6 -6.3 10 14.7 SSE 15 24 8 13 1021.4 1020.2 0.0

Other formats

Comma delimited format used in spreadsheet applications
http://www.bom.gov.au/fwo/IDQ60801/IDQ60801.94336.axf

JavaScript Object Notation format (JSON) in row-major order
http://www.bom.gov.au/fwo/IDQ60801/IDQ60801.94336.json

Data quality

Most of these data are generated automatically and are frequently updated. Quality checks on data are not normally performed. It is possible for incorrect values to appear. Refer to information at About Latest Weather Observations and please check the disclaimer before using these data.